createdAt,value
2022-08-17T00:03:06.658Z,20.90
2022-08-17T00:06:18.593Z,20.90
2022-08-17T00:09:26.553Z,20.90
2022-08-17T00:12:44.371Z,20.90
2022-08-17T00:15:53.873Z,20.90
2022-08-17T00:19:08.323Z,20.90
2022-08-17T00:22:33.881Z,20.90
2022-08-17T00:25:46.189Z,20.90
2022-08-17T00:28:54.805Z,20.90
2022-08-17T00:33:12.482Z,20.90
2022-08-17T00:35:32.917Z,20.80
2022-08-17T00:38:41.837Z,20.78
2022-08-17T00:41:49.897Z,20.76
2022-08-17T00:44:57.802Z,20.80
2022-08-17T00:48:06.099Z,20.80
2022-08-17T00:51:39.945Z,20.70
2022-08-17T00:54:55.242Z,20.60
2022-08-17T00:58:07.165Z,20.60
2022-08-17T01:01:21.610Z,20.60
2022-08-17T01:04:33.101Z,20.60
2022-08-17T01:07:41.433Z,20.50
2022-08-17T01:10:59.140Z,20.40
2022-08-17T01:14:09.548Z,20.40
2022-08-17T01:17:18.062Z,20.40
2022-08-17T01:20:25.909Z,20.48
2022-08-17T01:23:34.470Z,20.50
2022-08-17T01:26:43.938Z,20.50
2022-08-17T01:29:59.010Z,20.60
2022-08-17T01:33:11.429Z,20.50
2022-08-17T01:36:20.043Z,20.34
2022-08-17T01:39:37.385Z,20.30
2022-08-17T01:42:53.253Z,20.30
2022-08-17T01:46:04.024Z,20.30
2022-08-17T01:49:13.932Z,20.30
2022-08-17T01:52:24.293Z,20.40
2022-08-17T01:55:40.023Z,20.40
2022-08-17T01:58:48.678Z,20.40
2022-08-17T02:01:57.245Z,20.40
2022-08-17T02:05:05.440Z,20.40
2022-08-17T02:08:20.090Z,20.40
2022-08-17T02:11:28.493Z,20.40
2022-08-17T02:14:38.910Z,20.40
2022-08-17T02:17:46.843Z,20.40
2022-08-17T02:21:03.287Z,20.36
2022-08-17T02:24:16.990Z,20.30
2022-08-17T02:27:25.507Z,20.26
2022-08-17T02:31:00.363Z,20.20
2022-08-17T02:34:04.569Z,20.20
2022-08-17T02:37:13.117Z,20.20
2022-08-17T02:40:36.152Z,20.20
2022-08-17T02:43:45.511Z,20.10
2022-08-17T02:46:53.555Z,20.00
2022-08-17T02:50:01.462Z,19.90
2022-08-17T02:53:09.642Z,19.80
2022-08-17T02:56:17.629Z,19.80
2022-08-17T02:59:25.573Z,19.70
2022-08-17T03:02:38.512Z,19.70
2022-08-17T03:05:48.160Z,19.70
2022-08-17T03:08:54.831Z,19.60
2022-08-17T03:12:11.409Z,19.60
2022-08-17T03:15:23.521Z,19.60
2022-08-17T03:18:31.648Z,19.60
2022-08-17T03:21:39.739Z,19.60
2022-08-17T03:24:47.931Z,19.60
2022-08-17T03:27:56.822Z,19.68
2022-08-17T03:31:05.869Z,19.70
2022-08-17T03:34:14.263Z,19.70
2022-08-17T03:37:22.219Z,19.70
2022-08-17T03:40:34.401Z,19.70
2022-08-17T03:43:59.829Z,19.70
2022-08-17T03:47:25.859Z,19.80
2022-08-17T03:50:51.718Z,19.80
2022-08-17T03:54:18.900Z,19.80
2022-08-17T03:57:27.252Z,19.80
2022-08-17T04:00:36.386Z,19.80
2022-08-17T04:03:48.118Z,19.80
2022-08-17T04:06:56.012Z,19.80
2022-08-17T04:10:04.522Z,19.70
2022-08-17T04:13:12.990Z,19.60
2022-08-17T04:16:21.084Z,19.60
2022-08-17T04:19:29.205Z,19.60
2022-08-17T04:22:37.279Z,19.60
2022-08-17T04:25:50.197Z,19.60
2022-08-17T04:28:58.806Z,19.70
2022-08-17T04:32:09.025Z,19.76
2022-08-17T04:35:21.363Z,19.80
2022-08-17T04:38:33.681Z,19.90
2022-08-17T04:41:58.659Z,20.00
2022-08-17T04:45:09.900Z,20.10
2022-08-17T04:48:18.066Z,20.28
2022-08-17T04:51:29.264Z,20.42
2022-08-17T04:54:37.417Z,20.60
2022-08-17T04:57:45.396Z,20.80
2022-08-17T05:00:53.633Z,20.98
2022-08-17T05:04:21.343Z,21.10
2022-08-17T05:07:34.265Z,21.20
2022-08-17T05:10:45.327Z,21.30
2022-08-17T05:13:54.254Z,21.40
2022-08-17T05:17:02.039Z,21.50
2022-08-17T05:20:17.813Z,21.60
2022-08-17T05:23:42.031Z,21.66
2022-08-17T05:26:51.634Z,21.76
2022-08-17T05:30:00.242Z,21.80
2022-08-17T05:33:16.754Z,21.90
2022-08-17T05:36:43.542Z,21.98
2022-08-17T05:39:52.271Z,22.00
2022-08-17T05:43:12.281Z,22.10
2022-08-17T05:46:27.846Z,22.10
2022-08-17T05:49:35.697Z,22.10
2022-08-17T05:52:57.305Z,22.20
2022-08-17T05:56:29.208Z,22.22
2022-08-17T05:59:54.296Z,22.30
2022-08-17T06:03:26.791Z,22.40
2022-08-17T06:06:47.885Z,22.50
2022-08-17T06:10:05.111Z,22.70
2022-08-17T06:13:30.387Z,22.82
2022-08-17T06:16:44.594Z,23.00
2022-08-17T06:20:00.154Z,23.10
2022-08-17T06:23:18.617Z,23.30
2022-08-17T06:26:39.673Z,23.40
2022-08-17T06:29:59.241Z,23.60
2022-08-17T06:33:16.126Z,23.72
2022-08-17T06:36:47.662Z,23.82
2022-08-17T06:40:16.212Z,24.00
2022-08-17T06:43:50.078Z,24.10
2022-08-17T06:47:09.153Z,24.30
2022-08-17T06:50:26.451Z,24.48
2022-08-17T06:53:44.939Z,24.60
2022-08-17T06:57:01.934Z,24.80
2022-08-17T07:00:17.252Z,24.90
2022-08-17T07:03:39.388Z,25.10
2022-08-17T07:06:56.152Z,25.30
2022-08-17T07:10:07.866Z,25.50
2022-08-17T07:13:32.364Z,25.70
2022-08-17T07:16:46.877Z,25.86
2022-08-17T07:20:05.054Z,26.00
2022-08-17T07:23:26.790Z,26.10
2022-08-17T07:26:35.021Z,26.14
2022-08-17T07:29:50.596Z,26.24
2022-08-17T07:33:02.964Z,26.40
2022-08-17T07:36:33.759Z,26.50
2022-08-17T07:40:14.920Z,26.62
2022-08-17T07:43:29.435Z,26.70
2022-08-17T07:47:09.117Z,26.90
2022-08-17T07:50:33.214Z,27.00
2022-08-17T07:53:47.793Z,27.20
2022-08-17T07:56:58.885Z,27.40
2022-08-17T08:00:29.155Z,27.58
2022-08-17T08:03:52.400Z,27.76
2022-08-17T08:07:06.680Z,28.00
2022-08-17T08:10:29.926Z,28.14
2022-08-17T08:13:42.939Z,28.30
2022-08-17T08:17:03.177Z,28.40
2022-08-17T08:20:37.552Z,28.60
2022-08-17T08:23:57.571Z,28.80
2022-08-17T08:27:20.427Z,29.00
2022-08-17T08:30:28.559Z,29.20
2022-08-17T08:33:56.992Z,29.30
2022-08-17T08:37:24.973Z,29.40
2022-08-17T08:41:00.173Z,29.50
2022-08-17T08:45:00.663Z,29.70
2022-08-17T08:48:53.272Z,29.90
2022-08-17T08:51:55.635Z,30.10
2022-08-17T08:55:14.633Z,30.20
2022-08-17T08:58:31.815Z,30.38
2022-08-17T09:02:04.944Z,30.50
2022-08-17T09:05:33.106Z,30.62
2022-08-17T09:09:03.339Z,30.80
2022-08-17T09:12:23.135Z,30.90
2022-08-17T09:15:39.848Z,31.08
2022-08-17T09:19:01.517Z,31.20
2022-08-17T09:22:31.909Z,31.30
2022-08-17T09:25:52.692Z,31.50
2022-08-17T09:29:07.483Z,31.70
2022-08-17T09:32:25.436Z,31.90
2022-08-17T09:35:41.799Z,32.00
2022-08-17T09:39:02.309Z,32.20
2022-08-17T09:42:22.922Z,32.40
2022-08-17T09:45:40.153Z,32.50
2022-08-17T09:48:59.003Z,32.60
2022-08-17T09:52:13.110Z,32.70
2022-08-17T09:55:21.750Z,32.80
2022-08-17T09:58:47.763Z,32.90
2022-08-17T10:02:21.326Z,33.10
2022-08-17T10:05:40.074Z,33.20
2022-08-17T10:08:54.948Z,33.30
2022-08-17T10:12:20.341Z,33.50
2022-08-17T10:15:47.291Z,33.60
2022-08-17T10:19:13.901Z,33.80
2022-08-17T10:23:04.418Z,34.00
2022-08-17T10:26:20.185Z,34.10
2022-08-17T10:29:47.329Z,34.30
2022-08-17T10:33:03.374Z,34.60
2022-08-17T10:36:22.964Z,34.86
2022-08-17T10:39:51.882Z,35.14
2022-08-17T10:43:11.810Z,35.52
2022-08-17T10:46:30.919Z,35.72
2022-08-17T10:49:44.568Z,35.50
2022-08-17T10:52:53.888Z,35.40
2022-08-17T10:56:39.191Z,35.30
2022-08-17T10:59:56.473Z,35.30
2022-08-17T11:03:16.344Z,35.30
2022-08-17T11:06:42.611Z,35.50
2022-08-17T11:10:34.972Z,35.60
2022-08-17T11:14:06.483Z,35.80
2022-08-17T11:17:42.902Z,36.00
2022-08-17T11:21:40.701Z,36.16
2022-08-17T11:24:51.692Z,36.30
2022-08-17T11:28:18.091Z,36.40
2022-08-17T11:31:43.458Z,36.40
2022-08-17T11:34:51.486Z,36.50
2022-08-17T11:38:16.708Z,36.60
2022-08-17T11:41:37.488Z,36.74
2022-08-17T11:44:57.916Z,36.90
2022-08-17T11:48:37.082Z,36.90
2022-08-17T11:52:38.810Z,36.68
2022-08-17T11:56:10.200Z,36.40
2022-08-17T12:00:01.070Z,36.50
2022-08-17T12:03:58.959Z,36.72
2022-08-17T12:07:18.149Z,37.00
2022-08-17T12:10:32.128Z,37.20
2022-08-17T12:13:47.707Z,37.30
2022-08-17T12:17:07.445Z,37.38
2022-08-17T12:20:25.817Z,37.44
2022-08-17T12:23:44.241Z,37.70
2022-08-17T12:27:00.404Z,37.80
2022-08-17T12:30:16.640Z,37.80
2022-08-17T12:33:29.041Z,37.98
2022-08-17T12:36:41.451Z,38.10
2022-08-17T12:40:00.858Z,38.20
2022-08-17T12:43:20.060Z,38.00
2022-08-17T12:46:28.271Z,37.92
2022-08-17T12:49:37.506Z,38.00
2022-08-17T12:52:47.129Z,38.20
2022-08-17T12:55:57.882Z,38.32
2022-08-17T12:59:07.347Z,38.50
2022-08-17T13:02:32.389Z,38.50
2022-08-17T13:05:46.216Z,38.54
2022-08-17T13:08:54.067Z,38.20
2022-08-17T13:12:05.159Z,38.20
2022-08-17T13:15:26.276Z,38.20
2022-08-17T13:18:48.487Z,38.26
2022-08-17T13:22:00.098Z,38.10
2022-08-17T13:25:16.635Z,37.96
2022-08-17T13:28:30.609Z,37.70
2022-08-17T13:31:52.443Z,37.80
2022-08-17T13:35:39.536Z,37.58
2022-08-17T13:38:52.187Z,37.50
2022-08-17T13:42:00.026Z,37.40
2022-08-17T13:45:39.261Z,37.44
2022-08-17T13:48:57.897Z,37.80
2022-08-17T13:52:06.936Z,37.90
2022-08-17T13:55:23.981Z,38.10
2022-08-17T13:58:38.821Z,38.24
2022-08-17T14:01:53.852Z,38.30
2022-08-17T14:05:06.059Z,38.20
2022-08-17T14:08:18.264Z,38.10
2022-08-17T14:11:27.626Z,37.60
2022-08-17T14:14:36.433Z,37.62
2022-08-17T14:17:44.592Z,37.70
2022-08-17T14:20:53.414Z,37.80
2022-08-17T14:24:02.556Z,38.00
2022-08-17T14:27:12.107Z,38.10
2022-08-17T14:30:21.432Z,38.20
2022-08-17T14:33:30.546Z,38.00
2022-08-17T14:36:38.749Z,38.10
2022-08-17T14:39:58.959Z,38.30
2022-08-17T14:43:07.275Z,38.50
2022-08-17T14:46:13.651Z,38.60
2022-08-17T14:49:22.065Z,38.60
2022-08-17T14:52:30.713Z,38.50
2022-08-17T14:55:40.833Z,38.40
2022-08-17T14:58:49.212Z,38.40
2022-08-17T15:01:57.959Z,38.38
2022-08-17T15:05:11.695Z,38.20
2022-08-17T15:08:22.355Z,38.10
2022-08-17T15:11:32.046Z,38.00
2022-08-17T15:14:41.005Z,37.90
2022-08-17T15:17:51.275Z,37.80
2022-08-17T15:21:01.624Z,37.60
2022-08-17T15:24:12.021Z,37.60
2022-08-17T15:27:32.307Z,37.68
2022-08-17T15:30:43.334Z,37.66
2022-08-17T15:33:52.084Z,37.60
2022-08-17T15:37:00.170Z,37.50
2022-08-17T15:40:11.735Z,37.30
2022-08-17T15:43:27.611Z,37.12
2022-08-17T15:46:36.298Z,36.90
2022-08-17T15:49:46.567Z,36.70
2022-08-17T15:53:01.074Z,36.36
2022-08-17T15:56:10.270Z,36.08
2022-08-17T15:59:18.571Z,35.80
2022-08-17T16:03:44.412Z,35.60
2022-08-17T16:06:00.879Z,35.34
2022-08-17T16:09:08.880Z,35.10
2022-08-17T16:12:22.087Z,34.88
2022-08-17T16:15:31.124Z,34.60
2022-08-17T16:18:41.681Z,34.40
2022-08-17T16:21:49.650Z,34.20
2022-08-17T16:28:56.429Z,33.70
2022-08-17T16:32:15.753Z,33.50
2022-08-17T16:35:26.676Z,33.38
2022-08-17T16:38:36.631Z,33.20
2022-08-17T16:41:45.661Z,33.10
2022-08-17T16:44:56.016Z,32.94
2022-08-17T16:48:05.069Z,32.80
2022-08-17T16:51:14.000Z,32.70
2022-08-17T16:54:22.600Z,32.60
2022-08-17T16:57:47.428Z,32.50
2022-08-17T17:01:12.284Z,32.30
2022-08-17T17:04:27.988Z,32.20
2022-08-17T17:08:14.137Z,32.00
2022-08-17T17:11:36.764Z,31.86
2022-08-17T17:14:52.215Z,31.70
2022-08-17T17:18:07.320Z,31.60
2022-08-17T17:21:26.657Z,31.40
2022-08-17T17:24:38.513Z,31.30
2022-08-17T17:27:58.965Z,31.10
2022-08-17T17:31:14.547Z,31.00
2022-08-17T17:34:24.505Z,30.80
2022-08-17T17:37:37.903Z,30.70
2022-08-17T17:40:51.594Z,30.60
2022-08-17T17:44:07.806Z,30.40
2022-08-17T17:47:18.332Z,30.20
2022-08-17T17:50:38.115Z,30.10
2022-08-17T17:53:58.596Z,29.90
2022-08-17T17:57:17.856Z,29.80
2022-08-17T18:00:32.162Z,29.60
2022-08-17T18:03:59.306Z,29.50
2022-08-17T18:07:31.179Z,29.38
2022-08-17T18:10:54.733Z,29.20
2022-08-17T18:14:22.672Z,29.10
2022-08-17T18:17:31.438Z,29.00
2022-08-17T18:20:53.333Z,28.86
2022-08-17T18:24:10.714Z,28.70
2022-08-17T18:27:32.355Z,28.60
2022-08-17T18:30:40.529Z,28.40
2022-08-17T18:33:52.923Z,28.30
2022-08-17T18:37:01.571Z,28.12
2022-08-17T18:40:38.190Z,28.00
2022-08-17T18:43:53.829Z,27.90
2022-08-17T18:47:17.523Z,27.80
2022-08-17T18:50:35.603Z,27.70
2022-08-17T18:53:44.581Z,27.60
2022-08-17T18:56:59.440Z,27.50
2022-08-17T19:00:18.455Z,27.40
2022-08-17T19:03:30.013Z,27.30
2022-08-17T19:06:39.626Z,27.20
2022-08-17T19:09:54.258Z,27.10
2022-08-17T19:13:12.832Z,27.00
2022-08-17T19:16:30.578Z,26.90
2022-08-17T19:19:51.649Z,26.70
2022-08-17T19:23:11.769Z,26.60
2022-08-17T19:26:53.398Z,26.50
2022-08-17T19:30:06.950Z,26.40
2022-08-17T19:33:16.254Z,26.20
2022-08-17T19:36:44.557Z,26.00
2022-08-17T19:40:08.057Z,25.80
2022-08-17T19:43:31.404Z,25.60
2022-08-17T19:46:50.571Z,25.50
2022-08-17T19:50:13.784Z,25.38
2022-08-17T19:54:01.639Z,25.20
2022-08-17T19:57:16.966Z,25.10
2022-08-17T20:00:25.399Z,24.90
2022-08-17T20:03:41.847Z,24.88
2022-08-17T20:06:53.437Z,24.80
2022-08-17T20:10:12.230Z,24.70
2022-08-17T20:13:33.474Z,24.60
2022-08-17T20:16:42.962Z,24.60
2022-08-17T20:20:00.332Z,24.50
2022-08-17T20:23:22.940Z,24.40
2022-08-17T20:26:55.233Z,24.40
2022-08-17T20:30:37.913Z,24.40
2022-08-17T20:33:45.808Z,24.38
2022-08-17T20:37:08.737Z,24.26
2022-08-17T20:40:26.068Z,24.20
2022-08-17T20:44:05.605Z,24.10
2022-08-17T20:47:26.950Z,24.00
2022-08-17T20:50:42.040Z,23.90
2022-08-17T20:54:43.198Z,23.90
2022-08-17T20:57:52.495Z,23.90
2022-08-17T21:01:14.611Z,23.80
2022-08-17T21:05:00.671Z,23.80
2022-08-17T21:08:26.191Z,23.70
2022-08-17T21:12:03.863Z,23.72
2022-08-17T21:15:37.534Z,23.70
2022-08-17T21:18:53.335Z,23.70
2022-08-17T21:22:18.040Z,23.64
2022-08-17T21:25:56.539Z,23.60
2022-08-17T21:29:31.086Z,23.60
2022-08-17T21:32:44.848Z,23.60
2022-08-17T21:36:17.377Z,23.60
2022-08-17T21:39:40.893Z,23.60
2022-08-17T21:42:55.787Z,23.50
2022-08-17T21:46:11.586Z,23.50
2022-08-17T21:49:26.410Z,23.50
2022-08-17T21:52:34.727Z,23.50
2022-08-17T21:55:42.739Z,23.48
2022-08-17T21:58:58.755Z,23.40
2022-08-17T22:02:17.922Z,23.42
2022-08-17T22:05:36.589Z,23.40
2022-08-17T22:08:57.845Z,23.40
2022-08-17T22:12:11.573Z,23.40
2022-08-17T22:15:20.741Z,23.38
2022-08-17T22:18:32.189Z,23.30
2022-08-17T22:21:40.190Z,23.30
2022-08-17T22:24:57.978Z,23.24
2022-08-17T22:28:09.202Z,23.20
2022-08-17T22:31:20.182Z,23.10
2022-08-17T22:34:28.284Z,23.10
2022-08-17T22:37:36.400Z,23.00
2022-08-17T22:40:45.421Z,22.90
2022-08-17T22:43:57.595Z,22.90
2022-08-17T22:47:25.605Z,22.80
2022-08-17T22:50:35.523Z,22.80
2022-08-17T22:54:09.852Z,22.70
2022-08-17T22:57:51.929Z,22.70
2022-08-17T23:01:20.986Z,22.70
2022-08-17T23:04:39.513Z,22.70
2022-08-17T23:07:52.879Z,22.70
2022-08-17T23:11:01.768Z,22.60
2022-08-17T23:14:12.565Z,22.60
2022-08-17T23:17:21.393Z,22.60
2022-08-17T23:20:29.599Z,22.50
2022-08-17T23:23:39.483Z,22.46
2022-08-17T23:26:47.614Z,22.40
2022-08-17T23:29:55.978Z,22.30
2022-08-17T23:33:09.199Z,22.28
2022-08-17T23:36:18.963Z,22.30
2022-08-17T23:39:28.400Z,22.30
2022-08-17T23:42:35.795Z,22.20
2022-08-17T23:45:43.854Z,22.12
2022-08-17T23:48:54.312Z,22.16
2022-08-17T23:52:05.904Z,22.20
2022-08-17T23:55:14.843Z,22.30
2022-08-17T23:58:22.876Z,22.30
